Home > Products > Valid Products > TAF

000
FTUS41 KBTV 020521
TAFMPV
TAF
KMPV 020521Z 0206/0306 VRB03KT P6SM SKC
     FM021100 16008KT P6SM BKN080 OVC150
     FM021400 18010KT P6SM BKN050
     FM021800 18012G22KT P6SM SCT100
     FM030100 19016G30KT P6SM VCSH OVC050=



000
FTUS41 KBTV 020521
TAFBTV
TAF
KBTV 020521Z 0206/0306 VRB04KT P6SM SKC
     FM021000 16008KT P6SM BKN100 OVC150
     FM021400 17010KT P6SM BKN050
     FM021700 18015G28KT P6SM BKN200
     FM030100 19018G35KT P6SM VCSH OVC050=



000
FTUS41 KBTV 020521
TAFSLK
TAF
KSLK 020521Z 0206/0306 00000KT P6SM SKC
     FM021000 18006KT P6SM BKN090 OVC120
     FM021600 19013G25KT P6SM SCT100
     FM030000 20016G30KT P6SM VCSH OVC050=



000
FTUS41 KBTV 020521
TAFMPV
TAF
KMPV 020521Z 0206/0306 VRB03KT P6SM SKC
     FM021100 16008KT P6SM BKN080 OVC150
     FM021400 18010KT P6SM BKN050
     FM021800 18012G22KT P6SM SCT100
     FM030100 19016G30KT P6SM VCSH OVC050=



000
FTUS41 KBTV 020521
TAFSLK
TAF
KSLK 020521Z 0206/0306 00000KT P6SM SKC
     FM021000 18006KT P6SM BKN090 OVC120
     FM021600 19013G25KT P6SM SCT100
     FM030000 20016G30KT P6SM VCSH OVC050=



000
FTUS41 KBTV 020521
TAFMSS
TAF
KMSS 020521Z 0206/0306 22006KT P6SM SKC
     FM021000 14008KT P6SM BKN080 OVC120
     FM021600 21012KT P6SM SCT080
     FM021900 22012G25KT P6SM SCT100
     FM030200 22015G30KT P6SM VCSH OVC050=



000
FTUS41 KBTV 012320
TAFMPV
TAF
KMPV 012320Z 0200/0224 VRB03KT P6SM SKC
     FM021100 16008KT P6SM BKN080 OVC150
     FM021600 18012G22KT P6SM SCT100=



000
FTUS41 KBTV 012320
TAFMSS
TAF
KMSS 012320Z 0200/0224 VRB03KT P6SM SKC
     FM020800 14008KT P6SM BKN080 OVC120
     FM021200 21012KT P6SM SCT080
     FM021500 22012G25KT P6SM SCT100=



000
FTUS41 KBTV 012320
TAFBTV
TAF
KBTV 012320Z 0200/0224 VRB03KT P6SM SKC
     FM021000 16006KT P6SM BKN100 OVC150
     FM021300 17010KT P6SM SCT100
     FM021600 18015G28KT P6SM BKN200=



000
FTUS41 KBTV 011726
TAFMPV
TAF
KMPV 011726Z 0118/0218 32010G18KT P6SM SCT250
     FM020000 VRB03KT P6SM SCT250
     FM021100 VRB03KT P6SM BKN100 OVC150
     FM021400 18008KT P6SM OVC035=



000
FTUS41 KBTV 011726
TAFMSS
TAF
KMSS 011726Z 0118/0218 31009KT P6SM FEW250
     FM020000 22004KT P6SM SCT250
     FM020800 22005KT P6SM BKN100 OVC150
     FM021200 14005KT P6SM OVC035=



000
FTUS41 KBTV 011726
TAFSLK
TAF
KSLK 011726Z 0118/0218 30007KT P6SM FEW250
     FM020000 VRB03KT P6SM SCT250
     FM020800 VRB03KT P6SM BKN100 OVC150
     FM021200 22006KT P6SM OVC035=



000
FTUS41 KBTV 011726
TAFBTV
TAF
KBTV 011726Z 0118/0218 35012KT P6SM SCT250
     FM020100 VRB03KT P6SM SCT250
     FM021000 16004KT P6SM BKN100 OVC150
     FM021400 18014G20KT P6SM OVC035=



000
FTUS41 KBTV 011120
TAFBTV
TAF
KBTV 011120Z 0112/0212 35008KT P6SM SKC
     FM012300 VRB06KT P6SM SKC
     FM021000 17006KT P6SM BKN100=



000
FTUS41 KBTV 011120
TAFSLK
TAF
KSLK 011120Z 0112/0212 VRB05KT P6SM SKC
     FM011500 29010KT P6SM SKC
     FM020000 VRB06KT P6SM SKC
     FM020800 18006KT P6SM BKN100=



000
FTUS41 KBTV 011120
TAFBTV
TAF
KBTV 011120Z 0112/0212 35008KT P6SM SKC
     FM012300 VRB06KT P6SM SKC
     FM021000 17006KT P6SM BKN100=



000
FTUS41 KBTV 011120
TAFMPV
TAF
KMPV 011120Z 0112/0212 33008KT P6SM SKC
     FM020000 VRB06KT P6SM SKC
     FM021100 VRB06KT P6SM BKN100=



000
FTUS41 KBTV 011120
TAFSLK
TAF
KSLK 011120Z 0112/0212 VRB05KT P6SM SKC
     FM011500 29010KT P6SM SKC
     FM020000 VRB06KT P6SM SKC
     FM020800 18006KT P6SM BKN100=



000
FTUS41 KBTV 011120
TAFMSS
TAF
KMSS 011120Z 0112/0212 VRB06KT P6SM SKC
     FM011900 23008KT P6SM SKC
     FM020800 20006KT P6SM BKN100=



000
FTUS41 KBTV 011120
TAFMPV
TAF
KMPV 011120Z 0112/0212 33008KT P6SM SKC
     FM020000 VRB06KT P6SM SKC
     FM021100 VRB06KT P6SM BKN100=



000
FTUS41 KBTV 011120
TAFMSS
TAF
KMSS 011120Z 0112/0212 VRB06KT P6SM SKC
     FM011900 23008KT P6SM SKC
     FM020800 20006KT P6SM BKN100=



000
FTUS41 KBTV 010520
TAFMPV
TAF
KMPV 010520Z 0106/0206 26006KT P6SM SKC=



000
FTUS41 KBTV 010520
TAFBTV
TAF
KBTV 010520Z 0106/0206 02006KT P6SM SKC=



000
FTUS41 KBTV 010520
TAFMSS
TAF
KMSS 010520Z 0106/0206 27005KT P6SM SKC=



000
FTUS41 KBTV 010520
TAFSLK
TAF
KSLK 010520Z 0106/0206 VRB05KT P6SM SKC=



000
FTUS41 KBTV 312320
TAFMPV
TAF
KMPV 312320Z 0100/0124 29007KT P6SM SKC=



000
FTUS41 KBTV 312320
TAFMSS
TAF
KMSS 312320Z 0100/0124 29007KT P6SM SKC=



000
FTUS41 KBTV 312320
TAFSLK
TAF
KSLK 312320Z 0100/0124 VRB05KT P6SM SKC=



000
FTUS41 KBTV 311720
TAFMSS
TAF
KMSS 311720Z 3118/0118 29007KT P6SM SKC=



000
FTUS41 KBTV 311720
TAFSLK
TAF
KSLK 311720Z 3118/0118 28005KT P6SM SKC=



000
FTUS41 KBTV 311720
TAFBTV
TAF
KBTV 311720Z 3118/0118 32006KT P6SM SKC=



000
FTUS41 KBTV 311720
TAFMPV
TAF
KMPV 311720Z 3118/0118 31007KT P6SM SKC=



000
FTUS41 KBTV 311720
TAFBTV
TAF
KBTV 311720Z 3118/0118 32006KT P6SM SKC=



000
FTUS41 KBTV 311720
TAFSLK
TAF
KSLK 311720Z 3118/0118 28005KT P6SM SKC=



000
FTUS41 KBTV 311720
TAFMPV
TAF
KMPV 311720Z 3118/0118 31007KT P6SM SKC=



000
FTUS41 KBTV 311538 AAA
TAFSLK
TAF AMD
KSLK 311538Z 3116/0112 28005KT P6SM SCT035=



000
FTUS41 KBTV 311150 CCB
TAFMPV
TAF COR
KMPV 311150Z 3112/0112 31008KT P6SM OVC040
      TEMPO 3112/3114 2SM -SN BR BKN020
     FM311700 31008KT P6SM SCT035=



000
FTUS41 KBTV 311150 CCB
TAFMPV
TAF COR
KMPV 311150Z 3112/0112 31008KT P6SM OVC040
      TEMPO 3112/3114 2SM -SN BR BKN020
     FM311700 31008KT P6SM SCT035=



000
FTUS41 KBTV 311138 CCA
TAFMPV
TAF COR
KMPV 311138Z 3112/0112 31008KT P6SM OVC040
     FM311700 31008KT P6SM SCT035=



000
FTUS41 KBTV 311138 CCA
TAFMPV
TAF COR
KMPV 311138Z 3112/0112 31008KT P6SM OVC040
     FM311700 31008KT P6SM SCT035=



000
FTUS41 KBTV 311130
TAFBTV
TAF
KBTV 311130Z 3112/0112 35009KT P6SM SCT035 BKN045
     FM311500 33008KT P6SM SCT040=



000
FTUS41 KBTV 311130
TAFSLK
TAF
KSLK 311130Z 3112/0112 28005KT P6SM BKN025 OVC035
     FM311700 28006KT P6SM SCT035=



000
FTUS41 KBTV 311130
TAFMPV
TAF
KMPV 311130Z 3112/0112 31008KT P6SM OVC030
     FM311700 31008KT P6SM SCT035=



000
FTUS41 KBTV 311130
TAFMSS
TAF
KMSS 311130Z 3112/0112 29010KT P6SM FEW035
     FM311500 30009KT P6SM SCT035=



000
FTUS41 KBTV 310754 AAA
TAFMPV
TAF AMD
KMPV 310754Z 3108/0106 30008KT P6SM OVC030
     FM311400 31008KT P6SM SCT035=



000
FTUS41 KBTV 310526 CCA
TAFMPV
TAF COR
KMPV 310526Z 3105/0106 30008KT 1SM -SN BR OVC015
      TEMPO 3106/3108 1/2SM SN FG VV010
     FM310800 30008KT P6SM OVC025
     FM311400 31008KT P6SM SCT035=



000
FTUS41 KBTV 310526 CCA
TAFMPV
TAF COR
KMPV 310526Z 3105/0106 30008KT 1SM -SN BR OVC015
      TEMPO 3106/3108 1/2SM SN FG VV010
     FM310800 30008KT P6SM OVC025
     FM311400 31008KT P6SM SCT035=



000
FTUS41 KBTV 310520
TAFMSS
TAF
KMSS 310520Z 3106/0106 29010KT P6SM OVC035
     FM311800 30009KT P6SM SCT035=



000
FTUS41 KBTV 310520
TAFSLK
TAF
KSLK 310520Z 3106/0106 28006KT P6SM BKN025 OVC030
     FM311500 28006KT P6SM SCT035=



000
FTUS41 KBTV 310520
TAFMPV
TAF
KMPV 310520Z 3106/0106 29008KT 1SM -SN BR OVC015
     FM310800 30008KT P6SM OVC025
     FM311400 31008KT P6SM SCT035=



000
FTUS41 KBTV 310520
TAFSLK
TAF
KSLK 310520Z 3106/0106 28006KT P6SM BKN025 OVC030
     FM311500 28006KT P6SM SCT035=



000
FTUS41 KBTV 310520
TAFBTV
TAF
KBTV 310520Z 3106/0106 32008KT P6SM OVC035
     FM311600 33008KT P6SM SCT040=



000
FTUS41 KBTV 310520
TAFMSS
TAF
KMSS 310520Z 3106/0106 29010KT P6SM OVC035
     FM311800 30009KT P6SM SCT035=



000
FTUS41 KBTV 310520
TAFMPV
TAF
KMPV 310520Z 3106/0106 29008KT 1SM -SN BR OVC015
     FM310800 30008KT P6SM OVC025
     FM311400 31008KT P6SM SCT035=



000
FTUS41 KBTV 310520
TAFBTV
TAF
KBTV 310520Z 3106/0106 32008KT P6SM OVC035
     FM311600 33008KT P6SM SCT040=



000
FTUS41 KBTV 310259 AAA
TAFMPV
TAF AMD
KMPV 310259Z 3103/3124 26009KT 6SM -SHSN BR OVC040
      TEMPO 3103/3106 1 1/2SM -SHSN BR BKN020
     FM310600 30010KT P6SM VCSH OVC035
     FM311400 31008KT P6SM BKN035=



000
FTUS41 KBTV 310259 AAA
TAFMPV
TAF AMD
KMPV 310259Z 3103/3124 26009KT 6SM -SHSN BR OVC040
      TEMPO 3103/3106 1 1/2SM -SHSN BR BKN020
     FM310600 30010KT P6SM VCSH OVC035
     FM311400 31008KT P6SM BKN035=



000
FTUS41 KBTV 302320
TAFMPV
TAF
KMPV 302320Z 3100/3124 26009KT 6SM -SHSN BR OVC040
     FM310600 30010KT P6SM VCSH OVC035
     FM311400 31008KT P6SM BKN035=



000
FTUS41 KBTV 302320
TAFBTV
TAF
KBTV 302320Z 3100/3124 26012G20KT P6SM VCSH BKN045
     FM310400 30010KT P6SM OVC040
     FM311000 32008KT P6SM BKN035
     FM311600 33008KT P6SM SCT040=



000
FTUS41 KBTV 302320
TAFMSS
TAF
KMSS 302320Z 3100/3124 27013G23KT P6SM VCSH BKN035 BKN060
     FM310400 28012G20KT P6SM BKN035 BKN060
     FM311200 29010KT P6SM BKN035
     FM311800 30009KT P6SM SCT035=



000
FTUS41 KBTV 302320
TAFMSS
TAF
KMSS 302320Z 3100/3124 27013G23KT P6SM VCSH BKN035 BKN060
     FM310400 28012G20KT P6SM BKN035 BKN060
     FM311200 29010KT P6SM BKN035
     FM311800 30009KT P6SM SCT035=



000
FTUS41 KBTV 302320
TAFSLK
TAF
KSLK 302320Z 3100/3124 26008G15KT 3SM -SHSN BR OVC018
      TEMPO 3100/3104 1SM -SHSN BKN011
     FM310600 26006KT P6SM VCSH BKN025
     FM311200 27006KT P6SM BKN025
     FM312000 28006KT P6SM SCT035=



000
FTUS41 KBTV 302320
TAFSLK
TAF
KSLK 302320Z 3100/3124 26008G15KT 3SM -SHSN BR OVC018
      TEMPO 3100/3104 1SM -SHSN BKN011
     FM310600 26006KT P6SM VCSH BKN025
     FM311200 27006KT P6SM BKN025
     FM312000 28006KT P6SM SCT035=



000
FTUS41 KBTV 302320
TAFMPV
TAF
KMPV 302320Z 3100/3124 26009KT 6SM -SHSN BR OVC040
     FM310600 30010KT P6SM VCSH OVC035
     FM311400 31008KT P6SM BKN035=



000
FTUS41 KBTV 302320
TAFBTV
TAF
KBTV 302320Z 3100/3124 26012G20KT P6SM VCSH BKN045
     FM310400 30010KT P6SM OVC040
     FM311000 32008KT P6SM BKN035
     FM311600 33008KT P6SM SCT040=



000
FTUS41 KBTV 301731
TAFBTV
TAF
KBTV 301731Z 3018/3118 18015G25KT P6SM SCT035 OVC045
      TEMPO 3020/3024 -SHRA BKN035
     FM310000 24012G22KT P6SM OVC045
     FM310500 30010G18KT P6SM OVC040=



000
FTUS41 KBTV 301731
TAFSLK
TAF
KSLK 301731Z 3018/3118 24015G25KT P6SM VCSH OVC020
      TEMPO 3018/3022 3SM -SHSN BR BKN015
     FM302200 25012G20KT 2SM -SHSN BR OVC015
     FM310400 26008KT 3SM -SHSN BR OVC018
     FM310800 27005KT P6SM VCSH OVC025=



000
FTUS41 KBTV 301731
TAFMSS
TAF
KMSS 301731Z 3018/3118 23018G28KT P6SM -SHRA SCT025 OVC040
      TEMPO 3018/3022 3SM -SHRASN BR BKN025
     FM302200 27013G23KT P6SM VCSH BKN025 OVC035
     FM310300 28012G20KT P6SM OVC035=



000
FTUS41 KBTV 301731
TAFMPV
TAF
KMPV 301731Z 3018/3118 20010G18KT P6SM VCSH SCT025 OVC045
      TEMPO 3018/3022 5SM -SHSN BR BKN025
     FM302200 24009KT P6SM VCSH SCT025 OVC040
     FM310200 28008KT 3SM -SHSN BR OVC025
     FM310600 32010G18KT P6SM OVC035=



000
FTUS41 KBTV 301731
TAFBTV
TAF
KBTV 301731Z 3018/3118 18015G25KT P6SM SCT035 OVC045
      TEMPO 3020/3024 -SHRA BKN035
     FM310000 24012G22KT P6SM OVC045
     FM310500 30010G18KT P6SM OVC040=



000
FTUS41 KBTV 301731
TAFMPV
TAF
KMPV 301731Z 3018/3118 20010G18KT P6SM VCSH SCT025 OVC045
      TEMPO 3018/3022 5SM -SHSN BR BKN025
     FM302200 24009KT P6SM VCSH SCT025 OVC040
     FM310200 28008KT 3SM -SHSN BR OVC025
     FM310600 32010G18KT P6SM OVC035=



000
FTUS41 KBTV 301731
TAFMSS
TAF
KMSS 301731Z 3018/3118 23018G28KT P6SM -SHRA SCT025 OVC040
      TEMPO 3018/3022 3SM -SHRASN BR BKN025
     FM302200 27013G23KT P6SM VCSH BKN025 OVC035
     FM310300 28012G20KT P6SM OVC035=



000
FTUS41 KBTV 301731
TAFSLK
TAF
KSLK 301731Z 3018/3118 24015G25KT P6SM VCSH OVC020
      TEMPO 3018/3022 3SM -SHSN BR BKN015
     FM302200 25012G20KT 2SM -SHSN BR OVC015
     FM310400 26008KT 3SM -SHSN BR OVC018
     FM310800 27005KT P6SM VCSH OVC025=



000
FTUS41 KBTV 301404 AAA
TAFMSS
TAF AMD
KMSS 301404Z 3014/3112 19012G20KT P6SM VCSH SCT020 OVC045
      TEMPO 3014/3015 5SM -SHRASN OVC020
     FM301500 21018G28KT P6SM VCSH OVC035
     FM302300 26014G24KT 3SM -SHRASN BR OVC025
     FM310300 29012G18KT P6SM OVC035=



000
FTUS41 KBTV 301141 AAA
TAFSLK
TAF AMD
KSLK 301141Z 3012/3112 21012KT P6SM VCSH BKN025 OVC050
      TEMPO 3012/3015 2SM -SHSN BKN025
     FM301500 22017G27KT P6SM OVC025
     FM302000 25017G26KT P6SM -SHSN OVC035
     FM302200 25016G22KT 3SM -SHSN BR OVC035
     FM310000 26014G20KT 2SM -SHSN BR OVC025
     FM310500 30010KT 5SM -SHSN BR OVC020=



000
FTUS41 KBTV 301141 AAA
TAFSLK
TAF AMD
KSLK 301141Z 3012/3112 21012KT P6SM VCSH BKN025 OVC050
      TEMPO 3012/3015 2SM -SHSN BKN025
     FM301500 22017G27KT P6SM OVC025
     FM302000 25017G26KT P6SM -SHSN OVC035
     FM302200 25016G22KT 3SM -SHSN BR OVC035
     FM310000 26014G20KT 2SM -SHSN BR OVC025
     FM310500 30010KT 5SM -SHSN BR OVC020=



000
FTUS41 KBTV 301124
TAFMSS
TAF
KMSS 301124Z 3012/3112 19012G20KT P6SM VCSH SCT035 OVC050
      TEMPO 3012/3014 5SM -SHRASN OVC035
     FM301500 21018G28KT P6SM VCSH OVC035
     FM302300 26014G24KT 3SM -SHRASN BR OVC025
     FM310300 29012G18KT P6SM OVC035=



000
FTUS41 KBTV 301124
TAFSLK
TAF
KSLK 301124Z 3012/3112 21012KT P6SM VCSH BKN035 OVC050
     FM301500 22017G27KT P6SM OVC025
     FM302000 25017G26KT P6SM -SHSN OVC035
     FM302200 25016G22KT 3SM -SHSN BR OVC035
     FM310000 26014G20KT 2SM -SHSN BR OVC025
     FM310500 30010KT 5SM -SHSN BR OVC020=



000
FTUS41 KBTV 301124
TAFMPV
TAF
KMPV 301124Z 3012/3112 18012G20KT P6SM SCT050 OVC070
     FM301500 21012G20KT P6SM VCSH OVC050
     FM302100 26010G18KT P6SM OVC040
     FM310200 29012G20KT 3SM -SHSN BR OVC025=



000
FTUS41 KBTV 301124
TAFBTV
TAF
KBTV 301124Z 3012/3112 19018G26KT P6SM BKN060
     FM301700 22013G21KT P6SM VCSH OVC040
      TEMPO 3018/3021 -SHRA
     FM310000 23009KT P6SM OVC050
     FM310300 29010G18KT P6SM OVC040=



000
FTUS41 KBTV 301124
TAFMPV
TAF
KMPV 301124Z 3012/3112 18012G20KT P6SM SCT050 OVC070
     FM301500 21012G20KT P6SM VCSH OVC050
     FM302100 26010G18KT P6SM OVC040
     FM310200 29012G20KT 3SM -SHSN BR OVC025=



000
FTUS41 KBTV 301124
TAFMSS
TAF
KMSS 301124Z 3012/3112 19012G20KT P6SM VCSH SCT035 OVC050
      TEMPO 3012/3014 5SM -SHRASN OVC035
     FM301500 21018G28KT P6SM VCSH OVC035
     FM302300 26014G24KT 3SM -SHRASN BR OVC025
     FM310300 29012G18KT P6SM OVC035=



000
FTUS41 KBTV 301124
TAFBTV
TAF
KBTV 301124Z 3012/3112 19018G26KT P6SM BKN060
     FM301700 22013G21KT P6SM VCSH OVC040
      TEMPO 3018/3021 -SHRA
     FM310000 23009KT P6SM OVC050
     FM310300 29010G18KT P6SM OVC040=



000
FTUS41 KBTV 301119 AAB
TAFSLK
TAF AMD
KSLK 301119Z 3011/3106 21012KT P6SM VCSH BKN035 OVC050
     FM301500 22017G27KT P6SM OVC025
     FM302000 25017G26KT P6SM -SHSN OVC035
     FM302200 25016G22KT 3SM -SHSN BR OVC035
     FM310000 26014G20KT 2SM -SHSN BR OVC025
     FM310500 30010KT 5SM -SHSN BR OVC020=



000
FTUS41 KBTV 301119 AAB
TAFSLK
TAF AMD
KSLK 301119Z 3011/3106 21012KT P6SM VCSH BKN035 OVC050
     FM301500 22017G27KT P6SM OVC025
     FM302000 25017G26KT P6SM -SHSN OVC035
     FM302200 25016G22KT 3SM -SHSN BR OVC035
     FM310000 26014G20KT 2SM -SHSN BR OVC025
     FM310500 30010KT 5SM -SHSN BR OVC020=



000
FTUS41 KBTV 301110 AAA
TAFMSS
TAF AMD
KMSS 301110Z 3011/3106 19012G20KT P6SM VCSH SCT035 OVC050
      TEMPO 3012/3014 5SM -SHRASN OVC035
     FM301500 21018G28KT P6SM VCSH OVC035
     FM302300 26014G24KT 3SM -SHRASN BR OVC025
     FM310300 29012G18KT P6SM OVC035=



000
FTUS41 KBTV 301043 AAA
TAFMPV
TAF AMD
KMPV 301043Z 3011/3106 18012G20KT P6SM OVC070
     FM301500 21012G20KT P6SM VCSH OVC050
     FM302100 26010G18KT P6SM OVC040
     FM310200 29012G20KT 3SM -SHSN BR OVC025=



000
FTUS41 KBTV 301043 AAA
TAFMPV
TAF AMD
KMPV 301043Z 3011/3106 18012G20KT P6SM OVC070
     FM301500 21012G20KT P6SM VCSH OVC050
     FM302100 26010G18KT P6SM OVC040
     FM310200 29012G20KT 3SM -SHSN BR OVC025=



000
FTUS41 KBTV 301037 AAB
TAFBTV
TAF AMD
KBTV 301037Z 3011/3106 19018G26KT P6SM BKN070
     FM301700 22013G21KT P6SM VCSH OVC040
      TEMPO 3018/3021 -SHRA
     FM310000 23009KT P6SM OVC050
     FM310300 29010G18KT P6SM OVC040=



    US Dept of Commerce
    National Oceanic and Atmospheric Administration
    National Weather Service
    1325 East West Highway
    Silver Spring, MD 20910
    Page Author: NWS Internet Services Team
Disclaimer
Information Quality
Credits
Glossary
Privacy Policy
Freedom of Information Act (FOIA)
About Us
Career Opportunities